createdAt,value
2019-01-02T06:35:02.336Z,0.1
2019-01-02T06:37:01.101Z,0.2
2019-01-02T06:38:01.102Z,0.3
2019-01-02T06:40:01.238Z,0.4
2019-01-02T06:41:01.099Z,0.5
2019-01-02T06:43:01.101Z,0.7
2019-01-02T06:44:01.068Z,0.8
2019-01-02T06:45:01.249Z,0.9
2019-01-02T06:46:01.105Z,1.1
2019-01-02T06:47:01.106Z,1.3
2019-01-02T06:48:02.162Z,1.5
2019-01-02T06:49:01.098Z,1.7
2019-01-02T06:50:01.239Z,1.9
2019-01-02T06:51:01.104Z,2.2
2019-01-02T06:52:01.102Z,2.5
2019-01-02T06:53:01.103Z,2.9
2019-01-02T06:54:06.106Z,3.4
2019-01-02T06:55:01.253Z,3.9
2019-01-02T06:56:01.159Z,4.5
2019-01-02T06:57:01.165Z,5.3
2019-01-02T06:58:01.102Z,6.1
2019-01-02T06:59:01.144Z,7.0
2019-01-02T07:00:02.529Z,8.1
2019-01-02T07:01:01.138Z,9.5
2019-01-02T07:02:01.099Z,10.9
2019-01-02T07:03:01.071Z,12.7
2019-01-02T07:04:01.171Z,14.8
2019-01-02T07:05:01.505Z,17.3
2019-01-02T07:06:01.136Z,20.1
2019-01-02T07:07:01.103Z,23.5
2019-01-02T07:08:01.107Z,27.5
2019-01-02T07:10:01.231Z,33.1
2019-01-02T07:11:01.060Z,39.7
2019-01-02T07:12:01.086Z,47.3
2019-01-02T07:13:01.056Z,56.1
2019-01-02T07:14:01.056Z,66.3
2019-01-02T07:15:01.281Z,78.0
2019-01-02T07:16:01.086Z,91.5
2019-01-02T07:17:01.268Z,106.9
2019-01-02T07:18:01.093Z,124.5
2019-01-02T07:19:01.118Z,144.3
2019-01-02T07:20:01.300Z,166.8
2019-01-02T07:21:01.094Z,192.1
2019-01-02T07:22:01.089Z,220.5
2019-01-02T07:23:01.093Z,252.2
2019-01-02T07:24:06.102Z,287.5
2019-01-02T07:25:01.308Z,325.8
2019-01-02T07:26:01.093Z,368.1
2019-01-02T07:27:01.089Z,414.7
2019-01-02T07:28:01.123Z,465.8
2019-01-02T07:29:01.094Z,521.7
2019-01-02T07:30:01.303Z,582.6
2019-01-02T07:31:01.105Z,648.9
2019-01-02T07:32:01.068Z,720.7
2019-01-02T07:33:06.104Z,798.1
2019-01-02T07:34:01.101Z,881.5
2019-01-02T07:35:02.262Z,971.0
2019-01-02T07:36:01.107Z,1066.8
2019-01-02T07:37:01.248Z,1169.1
2019-01-02T07:38:01.124Z,1278.0
2019-01-02T07:39:01.095Z,1393.7
2019-01-02T07:40:01.279Z,1516.1
2019-01-02T07:41:01.073Z,1645.4
2019-01-02T07:42:01.107Z,1781.7
2019-01-02T07:43:01.135Z,1924.7
2019-01-02T07:44:01.071Z,2074.4
2019-01-02T07:45:01.244Z,2230.5
2019-01-02T07:46:01.097Z,2393.1
2019-01-02T07:47:01.175Z,2562.1
2019-01-02T07:48:01.126Z,2737.3
2019-01-02T07:49:01.110Z,2919.4
2019-01-02T07:50:01.281Z,3108.8
2019-01-02T07:52:01.912Z,3322.9
2019-01-02T07:53:01.090Z,3543.9
2019-01-02T07:54:01.083Z,3772.1
2019-01-02T07:55:01.090Z,4007.1
2019-01-02T07:56:01.229Z,4247.5
2019-01-02T07:57:01.085Z,4493.3
2019-01-02T07:58:01.093Z,4745.3
2019-01-02T07:59:01.178Z,5003.1
2019-01-02T08:00:01.086Z,5266.7
2019-01-02T08:01:01.238Z,5535.4
2019-01-02T08:02:01.094Z,5808.9
2019-01-02T08:03:01.087Z,6086.5
2019-01-02T08:04:01.113Z,6368.1
2019-01-02T08:05:01.062Z,6653.1
2019-01-02T08:06:01.236Z,6941.6
2019-01-02T08:07:01.092Z,7215.3
2019-01-02T08:08:01.091Z,7492.4
2019-01-02T08:09:01.122Z,7772.4
2019-01-02T08:10:01.088Z,8054.8
2019-01-02T08:11:01.233Z,8340.0
2019-01-02T08:12:02.475Z,8627.6
2019-01-02T08:13:01.089Z,8916.6
2019-01-02T08:14:01.092Z,9206.6
2019-01-02T08:15:03.132Z,9496.6
2019-01-02T08:16:01.288Z,9788.5
2019-01-02T08:17:01.093Z,10082.2
2019-01-02T08:18:01.102Z,10378.2
2019-01-02T08:19:01.128Z,10675.2
2019-01-02T08:20:01.112Z,10973.9
2019-01-02T08:21:01.236Z,11275.5
2019-01-02T08:22:01.093Z,11583.7
2019-01-02T08:23:01.097Z,11902.5
2019-01-02T08:24:01.134Z,12224.1
2019-01-02T08:25:01.101Z,12549.4
2019-01-02T08:26:01.236Z,12876.9
2019-01-02T08:27:01.097Z,13204.8
2019-01-02T08:28:01.065Z,13533.1
2019-01-02T08:29:01.132Z,13876.1
2019-01-02T08:30:01.099Z,14234.7
2019-01-02T08:31:01.246Z,14564.1
2019-01-02T08:32:01.105Z,14889.9
2019-01-02T08:33:01.097Z,15238.8
2019-01-02T08:34:01.822Z,15600.0
2019-01-02T08:35:01.102Z,15944.2
2019-01-02T08:36:01.273Z,16253.9
2019-01-02T08:37:01.100Z,16575.1
2019-01-02T08:38:01.068Z,16912.1
2019-01-02T08:39:01.132Z,17218.7
2019-01-02T08:40:01.098Z,17509.5
2019-01-02T08:41:01.240Z,17789.1
2019-01-02T08:42:01.105Z,18036.3
2019-01-02T08:43:01.099Z,18303.2
2019-01-02T08:44:01.135Z,18577.1
2019-01-02T08:45:01.072Z,18833.7
2019-01-02T08:47:02.031Z,19146.9
2019-01-02T08:48:01.408Z,19439.0
2019-01-02T08:49:01.058Z,19644.7
2019-01-02T08:50:02.164Z,19817.5
2019-01-02T08:51:01.111Z,19989.4
2019-01-02T08:52:01.232Z,20212.7
2019-01-02T08:53:01.085Z,20441.7
2019-01-02T08:54:01.129Z,20670.3
2019-01-02T08:55:06.101Z,20977.2
2019-01-02T08:56:01.090Z,21282.2
2019-01-02T08:57:01.227Z,21564.9
2019-01-02T08:58:01.094Z,21857.8
2019-01-02T08:59:01.095Z,22153.7
2019-01-02T09:00:01.096Z,22453.9
2019-01-02T09:01:01.120Z,22818.9
2019-01-02T09:02:01.236Z,23172.3
2019-01-02T09:03:01.094Z,23655.3
2019-01-02T09:04:01.094Z,24240.7
2019-01-02T09:05:01.090Z,24731.6
2019-01-02T09:06:06.104Z,25124.3
2019-01-02T09:07:01.236Z,26068.8
2019-01-02T09:08:02.104Z,27418.4
2019-01-02T09:09:01.103Z,29149.1
2019-01-02T09:10:01.093Z,30580.4
2019-01-02T09:11:06.109Z,32192.5
2019-01-02T09:12:01.239Z,33922.0
2019-01-02T09:13:01.099Z,35160.0
2019-01-02T09:14:01.124Z,36638.5
2019-01-02T09:15:01.093Z,38021.1
2019-01-02T09:16:06.103Z,38789.9
2019-01-02T09:17:01.298Z,39913.9
2019-01-02T09:18:01.065Z,41595.4
2019-01-02T09:19:01.098Z,42666.2
2019-01-02T09:20:01.097Z,43181.4
2019-01-02T09:21:06.098Z,43856.3
2019-01-02T09:22:01.239Z,44525.5
2019-01-02T09:23:01.096Z,44617.1
2019-01-02T09:24:01.063Z,43610.5
2019-01-02T09:25:01.133Z,43844.3
2019-01-02T09:26:06.107Z,44622.9
2019-01-02T09:27:01.238Z,45177.5
2019-01-02T09:28:01.070Z,46320.7
2019-01-02T09:29:01.100Z,47449.1
2019-01-02T09:30:01.112Z,48766.9
2019-01-02T09:31:06.106Z,50013.9
2019-01-02T09:32:01.241Z,50834.7
2019-01-02T09:33:01.066Z,51527.5
2019-01-02T09:34:02.111Z,52854.5
2019-01-02T09:35:01.101Z,54599.3
2019-01-02T09:36:01.128Z,55792.1
2019-01-02T09:37:01.244Z,57120.7
2019-01-02T09:38:01.071Z,58578.4
2019-01-02T09:39:01.072Z,60706.9
2019-01-02T09:40:01.101Z,61374.1
2019-01-02T09:41:06.107Z,61300.5
2019-01-02T09:43:01.243Z,61208.4
2019-01-02T09:44:01.092Z,61041.7
2019-01-02T09:45:01.113Z,61180.6
2019-01-02T09:46:01.088Z,61131.0
2019-01-02T09:47:02.009Z,60616.5
2019-01-02T09:48:01.232Z,61254.2
2019-01-02T09:49:01.089Z,61337.2
2019-01-02T09:51:01.092Z,61570.7
2019-01-02T09:52:01.091Z,62292.0
2019-01-02T09:53:01.301Z,62119.3
2019-01-02T09:56:01.124Z,62568.4
2019-01-02T09:57:01.087Z,62404.7
2019-01-02T09:58:01.232Z,61655.0
2019-01-02T09:59:01.891Z,61229.5
2019-01-02T10:00:01.102Z,60329.1
2019-01-02T10:01:01.096Z,60378.7
2019-01-02T10:02:01.095Z,61496.1
2019-01-02T10:04:01.229Z,60918.1
2019-01-02T10:05:01.118Z,59704.9
2019-01-02T10:08:01.092Z,59392.9
2019-01-02T10:12:01.356Z,60014.9
2019-01-02T10:13:01.095Z,61359.2
2019-01-02T10:14:01.091Z,62358.8
2019-01-02T10:15:01.114Z,63259.2
2019-01-02T10:19:01.091Z,63837.1
2019-01-02T10:20:06.097Z,64857.3
2019-01-02T10:23:01.094Z,65341.9
2019-01-02T10:30:01.244Z,65341.9
2019-01-02T10:35:01.253Z,65535.0
2019-01-02T10:45:01.110Z,65535.0
2019-01-02T10:58:01.144Z,64400.9
2019-01-02T10:59:01.073Z,64384.4
2019-01-02T11:00:01.110Z,63840.4
2019-01-02T11:01:01.074Z,63249.2
2019-01-02T11:14:01.128Z,64383.3
2019-01-02T11:15:01.097Z,64399.8
2019-01-02T11:16:02.185Z,64943.8
2019-01-02T11:17:01.268Z,65535.0
2019-01-02T11:30:01.431Z,65535.0
2019-01-02T11:35:01.306Z,64856.3
2019-01-02T11:36:01.105Z,63742.6
2019-01-02T11:37:01.103Z,62942.7
2019-01-02T11:42:01.321Z,62461.3
2019-01-02T11:43:01.094Z,61399.5
2019-01-02T11:44:06.106Z,60786.9
2019-01-02T11:45:01.104Z,60164.6
2019-01-02T11:46:02.271Z,59746.1
2019-01-02T11:48:01.239Z,59212.7
2019-01-02T11:49:01.098Z,57687.7
2019-01-02T11:50:01.110Z,56320.7
2019-01-02T11:51:01.106Z,55986.1
2019-01-02T11:52:01.106Z,56786.0
2019-01-02T11:55:01.243Z,55467.9
2019-01-02T11:57:01.108Z,55949.3
2019-01-02T11:58:06.107Z,57011.1
2019-01-02T11:59:01.101Z,56708.1
2019-01-02T12:00:01.308Z,57330.5
2019-01-02T12:01:01.105Z,57749.0
2019-01-02T12:03:06.109Z,58282.4
2019-01-02T12:05:01.231Z,59807.4
2019-01-02T12:06:01.085Z,61853.1
2019-01-02T12:07:01.058Z,63301.4
2019-01-02T12:11:01.395Z,64619.5
2019-01-02T12:12:01.092Z,63568.5
2019-01-02T12:13:07.075Z,61647.9
2019-01-02T12:14:01.058Z,59547.4
2019-01-02T12:15:01.092Z,58446.8
2019-01-02T12:19:01.303Z,57553.9
2019-01-02T12:20:01.088Z,56016.5
2019-01-02T12:21:01.065Z,55031.6
2019-01-02T12:22:01.090Z,53842.6
2019-01-02T12:23:01.121Z,53673.6
2019-01-02T12:26:01.287Z,52784.1
2019-01-02T12:27:01.096Z,52018.3
2019-01-02T12:28:01.136Z,53369.5
2019-01-02T12:29:01.100Z,55470.1
2019-01-02T12:30:01.093Z,56444.3
2019-01-02T12:34:01.371Z,57094.1
2019-01-02T12:35:01.091Z,58631.5
2019-01-02T12:36:01.091Z,59616.4
2019-01-02T12:37:01.092Z,60805.4
2019-01-02T12:38:01.091Z,60974.4
2019-01-02T12:41:01.301Z,60879.1
2019-01-02T12:42:01.097Z,62695.9
2019-01-02T12:43:01.064Z,63079.2
2019-01-02T12:44:01.097Z,61122.3
2019-01-02T12:45:01.096Z,61307.3
2019-01-02T12:46:01.248Z,59254.9
2019-01-02T12:47:01.101Z,56959.1
2019-01-02T12:48:01.096Z,55340.4
2019-01-02T12:49:01.095Z,55583.5
2019-01-02T12:56:06.106Z,56568.3
2019-01-02T12:58:01.243Z,56754.3
2019-01-02T12:59:01.096Z,58711.2
2019-01-02T13:00:01.103Z,59568.1
2019-01-02T13:01:01.152Z,61620.5
2019-01-02T13:02:01.103Z,63916.3
2019-01-02T13:03:01.318Z,65535.0
2019-01-02T13:15:06.112Z,65535.0
2019-01-02T13:30:01.093Z,65535.0
2019-01-02T13:40:01.089Z,65454.9
2019-01-02T13:41:01.090Z,64076.5
2019-01-02T13:42:01.277Z,61735.7
2019-01-02T13:43:01.093Z,59184.1
2019-01-02T13:44:01.091Z,56516.7
2019-01-02T13:45:01.098Z,53813.4
2019-01-02T13:46:01.063Z,51070.7
2019-01-02T13:47:01.264Z,48293.3
2019-01-02T13:48:01.098Z,45500.7
2019-01-02T13:49:01.094Z,42694.3
2019-01-02T13:50:02.161Z,39868.7
2019-01-02T13:51:06.102Z,37018.1
2019-01-02T13:52:01.244Z,34150.7
2019-01-02T13:53:01.095Z,31271.8
2019-01-02T13:54:01.093Z,28378.1
2019-01-02T13:55:01.126Z,25548.7
2019-01-02T13:56:01.096Z,24002.8
2019-01-02T13:57:01.289Z,23405.1
2019-01-02T13:58:01.068Z,23001.9
2019-01-02T13:59:01.097Z,22699.1
2019-01-02T14:00:01.117Z,22418.2
2019-01-02T14:01:01.098Z,22163.5
2019-01-02T14:02:01.469Z,21930.2
2019-01-02T14:03:01.097Z,21697.9
2019-01-02T14:04:01.097Z,21463.8
2019-01-02T14:05:01.067Z,21234.7
2019-01-02T14:06:01.100Z,21016.4
2019-01-02T14:07:01.239Z,20800.4
2019-01-02T14:08:01.102Z,20581.1
2019-01-02T14:09:01.478Z,20361.4
2019-01-02T14:10:01.096Z,20140.1
2019-01-02T14:11:01.099Z,19917.3
2019-01-02T14:12:01.245Z,19692.7
2019-01-02T14:13:01.098Z,19467.4
2019-01-02T14:14:01.094Z,19241.3
2019-01-02T14:15:06.100Z,19012.3
2019-01-02T14:16:01.099Z,18780.3
2019-01-02T14:17:01.241Z,18545.5
2019-01-02T14:18:01.106Z,18308.7
2019-01-02T14:19:01.105Z,18071.3
2019-01-02T14:20:06.108Z,17831.7
2019-01-02T14:21:01.101Z,17590.3
2019-01-02T14:23:01.225Z,17329.3
2019-01-02T14:24:01.085Z,17065.5
2019-01-02T14:25:01.090Z,16799.6
2019-01-02T14:26:01.087Z,16533.1
2019-01-02T14:27:01.060Z,16263.8
2019-01-02T14:28:01.275Z,15991.5
2019-01-02T14:29:01.092Z,15717.3
2019-01-02T14:30:01.088Z,15440.5
2019-01-02T14:31:01.085Z,15161.9
2019-01-02T14:32:01.698Z,14880.5
2019-01-02T14:33:01.232Z,14596.6
2019-01-02T14:34:01.087Z,14309.8
2019-01-02T14:35:01.126Z,14020.5
2019-01-02T14:36:01.088Z,13728.7
2019-01-02T14:37:01.099Z,13434.4
2019-01-02T14:38:01.236Z,13154.4
2019-01-02T14:39:01.096Z,12871.9
2019-01-02T14:40:01.094Z,12586.4
2019-01-02T14:41:01.120Z,12299.5
2019-01-02T14:42:01.094Z,12012.2
2019-01-02T14:43:01.294Z,11724.5
2019-01-02T14:44:01.090Z,11436.8
2019-01-02T14:45:01.153Z,11149.1
2019-01-02T14:46:01.129Z,10860.9
2019-01-02T14:47:01.061Z,10572.4
2019-01-02T14:48:01.239Z,10283.0
2019-01-02T14:49:01.098Z,9993.4
2019-01-02T14:50:01.098Z,9703.3
2019-01-02T14:51:01.090Z,9412.9
2019-01-02T14:52:06.103Z,9122.7
2019-01-02T14:53:01.239Z,8833.7
2019-01-02T14:54:01.233Z,8546.7
2019-01-02T14:55:01.104Z,8261.8
2019-01-02T14:56:01.070Z,7978.5
2019-01-02T14:57:06.104Z,7697.0
2019-01-02T14:58:01.296Z,7417.1
2019-01-02T14:59:01.065Z,7139.2
2019-01-02T15:00:01.097Z,6863.2
2019-01-02T15:01:01.094Z,6589.9
2019-01-02T15:02:01.155Z,6319.5
2019-01-02T15:03:01.240Z,6052.6
2019-01-02T15:04:01.101Z,5789.3
2019-01-02T15:05:01.097Z,5530.4
2019-01-02T15:06:01.102Z,5275.8
2019-01-02T15:07:01.124Z,5025.5
2019-01-02T15:08:01.303Z,4779.3
2019-01-02T15:09:01.100Z,4537.6
2019-01-02T15:10:01.095Z,4300.7
2019-01-02T15:11:01.217Z,4069.0
2019-01-02T15:12:01.105Z,3842.9
2019-01-02T15:13:01.265Z,3623.1
2019-01-02T15:14:01.101Z,3409.6
2019-01-02T15:15:01.097Z,3202.7
2019-01-02T15:16:01.245Z,3002.5
2019-01-02T15:17:01.097Z,2809.1
2019-01-02T15:18:01.246Z,2622.8
2019-01-02T15:19:01.103Z,2443.9
2019-01-02T15:20:02.175Z,2272.2
2019-01-02T15:21:06.106Z,2107.8
2019-01-02T15:23:01.295Z,1944.7
2019-01-02T15:24:01.084Z,1789.9
2019-01-02T15:25:01.084Z,1643.3
2019-01-02T15:26:01.120Z,1505.1
2019-01-02T15:27:01.086Z,1374.9
2019-01-02T15:28:01.408Z,1252.4
2019-01-02T15:29:01.056Z,1137.5
2019-01-02T15:30:01.102Z,1029.8
2019-01-02T15:31:01.129Z,929.1
2019-01-02T15:32:01.088Z,835.6
2019-01-02T15:33:02.370Z,748.8
2019-01-02T15:34:01.086Z,668.5
2019-01-02T15:35:01.087Z,594.4
2019-01-02T15:36:01.122Z,526.3
2019-01-02T15:37:01.087Z,463.9
2019-01-02T15:38:01.229Z,413.1
2019-01-02T15:39:01.100Z,366.9
2019-01-02T15:40:01.089Z,325.0
2019-01-02T15:41:01.127Z,287.1
2019-01-02T15:42:01.094Z,253.1
2019-01-02T15:43:01.247Z,222.5
2019-01-02T15:44:01.090Z,195.1
2019-01-02T15:45:01.089Z,170.6
2019-01-02T15:46:02.175Z,148.9
2019-01-02T15:47:01.089Z,129.7
2019-01-02T15:48:01.298Z,112.7
2019-01-02T15:49:01.093Z,97.8
2019-01-02T15:50:01.094Z,84.7
2019-01-02T15:51:01.095Z,73.2
2019-01-02T15:52:01.091Z,63.1
2019-01-02T15:53:01.238Z,54.3
2019-01-02T15:54:01.095Z,46.7
2019-01-02T15:55:01.095Z,40.1
2019-01-02T15:56:01.101Z,34.5
2019-01-02T15:57:01.096Z,29.5
2019-01-02T15:58:01.246Z,25.3
2019-01-02T15:59:01.096Z,21.7
2019-01-02T16:00:01.119Z,18.7
2019-01-02T16:01:01.099Z,16.1
2019-01-02T16:02:01.098Z,13.8
2019-01-02T16:03:01.255Z,11.9
2019-01-02T16:04:01.098Z,10.2
2019-01-02T16:05:01.099Z,8.8
2019-01-02T16:06:01.106Z,7.5
2019-01-02T16:07:01.100Z,6.5
2019-01-02T16:08:01.253Z,5.6
2019-01-02T16:09:01.101Z,4.8
2019-01-02T16:11:01.215Z,4.1
2019-01-02T16:12:01.083Z,3.5
2019-01-02T16:13:01.231Z,3.1
2019-01-02T16:14:01.054Z,2.7
2019-01-02T16:15:01.093Z,2.3
2019-01-02T16:16:02.030Z,2.1
2019-01-02T16:17:01.088Z,1.8
2019-01-02T16:18:01.238Z,1.5
2019-01-02T16:19:01.084Z,1.3
2019-01-02T16:20:06.088Z,1.1
2019-01-02T16:21:01.086Z,0.9
2019-01-02T16:22:01.086Z,0.8
2019-01-02T16:23:01.234Z,0.7
2019-01-02T16:24:01.087Z,0.5
2019-01-02T16:26:01.118Z,0.4
2019-01-02T16:27:01.096Z,0.3
2019-01-02T16:29:01.227Z,0.2
2019-01-02T16:30:01.095Z,0.1
